Time;durP1;ratioP1;P1;durP2;ratioP2;P2;SDS_P1;SDS_P2;PMS_P1;PMS_P2;Temp;Humidity;BMP_temperature;BMP_pressure;BME280_temperature;BME280_humidity;BME280_pressure;Samples;Min_cycle;Max_cycle;Signal;HPM_P1;HPM_P2
2023/05/19 00:01:48;;;;;;;9.63;3.55;;;18.30;90.70;;;;;;6244769;23;20079;-75
2023/05/19 00:04:14;;;;;;;10.48;4.00;;;18.30;90.70;;;;;;6244776;23;20087;-76
2023/05/19 00:06:40;;;;;;;7.85;3.40;;;18.20;90.70;;;;;;6244496;23;20008;-76
2023/05/19 00:09:08;;;;;;;9.25;4.00;;;18.20;90.60;;;;;;6244216;23;19996;-75
2023/05/19 00:11:36;;;;;;;9.30;4.05;;;18.30;90.70;;;;;;6244262;23;20090;-76
2023/05/19 00:14:04;;;;;;;11.48;3.83;;;18.20;90.60;;;;;;6245983;23;20000;-76
2023/05/19 00:16:30;;;;;;;13.93;4.22;;;18.20;90.80;;;;;;6246381;23;20024;-75
2023/05/19 00:19:00;;;;;;;9.77;3.53;;;18.20;90.70;;;;;;6246651;23;20023;-75
2023/05/19 00:21:26;;;;;;;9.57;4.30;;;18.10;90.70;;;;;;6246448;23;20000;-75
2023/05/19 00:23:52;;;;;;;8.98;4.22;;;18.10;90.90;;;;;;6246425;23;20083;-75
2023/05/19 00:26:18;;;;;;;10.50;4.30;;;18.10;91.10;;;;;;6246450;23;20007;-76
2023/05/19 00:28:44;;;;;;;11.32;4.78;;;18.10;91.30;;;;;;6247203;23;20015;-75
2023/05/19 00:31:09;;;;;;;15.27;5.60;;;18.00;91.40;;;;;;6246136;23;20434;-76
2023/05/19 00:33:35;;;;;;;12.38;5.55;;;18.00;91.70;;;;;;6246266;23;20334;-76
2023/05/19 00:36:02;;;;;;;8.45;5.22;;;18.00;91.90;;;;;;6246283;23;20012;-75
2023/05/19 00:38:29;;;;;;;10.45;4.88;;;18.00;91.90;;;;;;6246183;23;20028;-75
2023/05/19 00:40:55;;;;;;;12.10;5.40;;;17.90;92.10;;;;;;6246501;23;20008;-75
2023/05/19 00:43:21;;;;;;;16.08;5.65;;;17.90;92.40;;;;;;6246330;23;20094;-75
2023/05/19 00:45:47;;;;;;;10.32;5.45;;;17.90;92.40;;;;;;6246328;23;20016;-75
2023/05/19 00:48:12;;;;;;;9.98;5.32;;;17.80;92.50;;;;;;6246149;23;20028;-75
2023/05/19 00:50:39;;;;;;;12.73;5.03;;;17.80;92.60;;;;;;6246372;23;20438;-75
2023/05/19 00:53:05;;;;;;;10.25;5.18;;;17.80;92.80;;;;;;6246386;23;20000;-75
2023/05/19 00:55:33;;;;;;;14.35;5.35;;;17.80;93.20;;;;;;6246557;23;20066;-76
2023/05/19 00:57:59;;;;;;;10.07;5.30;;;17.80;92.90;;;;;;6246437;23;20334;-75
2023/05/19 01:00:25;;;;;;;8.90;5.00;;;17.80;93.00;;;;;;6246569;23;20031;-76
2023/05/19 01:02:51;;;;;;;14.65;10.23;;;17.80;93.00;;;;;;6250970;23;20194;-76
2023/05/19 01:05:17;;;;;;;12.00;6.38;;;17.90;93.10;;;;;;6253328;23;20004;-76
2023/05/19 01:07:43;;;;;;;11.95;5.70;;;17.80;93.10;;;;;;6257082;23;19996;-76
2023/05/19 01:10:09;;;;;;;11.10;4.88;;;17.80;93.30;;;;;;6219868;23;20341;-75
2023/05/19 01:12:35;;;;;;;9.55;4.75;;;17.80;93.20;;;;;;6246083;23;20010;-75
2023/05/19 01:15:04;;;;;;;11.90;4.75;;;17.80;93.20;;;;;;6245710;23;20426;-75
2023/05/19 01:17:44;;;;;;;10.05;5.00;;;17.80;93.40;;;;;;6245802;23;20011;-75
2023/05/19 01:20:20;;;;;;;11.75;4.88;;;17.80;93.30;;;;;;6245483;23;20004;-74
2023/05/19 01:23:16;;;;;;;9.80;4.43;;;17.70;93.30;;;;;;6218695;23;20023;-75
2023/05/19 01:26:32;;;;;;;7.88;4.60;;;17.80;93.40;;;;;;6245425;23;20426;-75
2023/05/19 01:29:14;;;;;;;15.15;4.88;;;17.80;93.40;;;;;;6245739;23;20032;-76
2023/05/19 01:31:41;;;;;;;8.35;4.47;;;17.80;93.50;;;;;;6245467;23;20011;-74
2023/05/19 01:34:11;;;;;;;11.88;4.70;;;17.80;93.50;;;;;;6245661;23;19996;-75
2023/05/19 01:36:40;;;;;;;11.55;4.00;;;17.80;93.40;;;;;;6245653;23;20000;-74
2023/05/19 01:39:06;;;;;;;9.05;4.20;;;17.80;93.40;;;;;;6245721;23;20042;-74
2023/05/19 01:41:33;;;;;;;8.82;3.67;;;17.80;93.40;;;;;;6218725;23;20448;-75
2023/05/19 01:43:59;;;;;;;11.52;3.90;;;17.80;93.40;;;;;;6245747;23;20367;-77
2023/05/19 01:46:24;;;;;;;7.57;3.90;;;17.80;93.40;;;;;;6245067;23;20031;-75
2023/05/19 01:48:51;;;;;;;12.02;3.90;;;17.70;93.40;;;;;;6245901;23;19996;-75
2023/05/19 01:51:17;;;;;;;8.82;3.65;;;17.70;93.30;;;;;;6245171;23;20074;-73
2023/05/19 01:53:43;;;;;;;9.50;3.55;;;17.60;93.30;;;;;;6245259;23;20000;-75
2023/05/19 01:56:08;;;;;;;8.65;3.78;;;17.60;93.40;;;;;;6245709;23;20019;-75
2023/05/19 01:58:49;;;;;;;8.60;3.78;;;17.60;93.40;;;;;;6245519;23;20099;-75
2023/05/19 02:01:36;;;;;;;7.45;3.70;;;17.60;93.50;;;;;;6245377;23;20004;-75
2023/05/19 02:04:11;;;;;;;9.15;3.63;;;17.60;93.50;;;;;;6245056;23;20366;-75
2023/05/19 02:07:04;;;;;;;8.77;3.30;;;17.60;93.30;;;;;;6245053;23;20004;-74
2023/05/19 02:09:44;;;;;;;11.10;3.15;;;17.50;93.30;;;;;;6245189;23;20000;-74
2023/05/19 02:12:24;;;;;;;10.95;3.92;;;17.60;93.30;;;;;;6245197;23;20007;-75
2023/05/19 02:15:18;;;;;;;11.55;3.72;;;17.60;93.40;;;;;;6245385;23;19996;-74
2023/05/19 02:17:49;;;;;;;8.25;3.22;;;17.60;93.20;;;;;;6245327;23;20051;-74
2023/05/19 02:20:15;;;;;;;8.93;3.90;;;17.50;93.50;;;;;;6245430;23;20012;-75
2023/05/19 02:22:41;;;;;;;13.50;3.67;;;17.50;93.50;;;;;;6245098;23;20022;-75
2023/05/19 02:25:07;;;;;;;8.27;4.18;;;17.40;93.50;;;;;;6245133;23;20004;-74
2023/05/19 02:27:35;;;;;;;12.50;3.97;;;17.50;93.50;;;;;;6245393;23;19996;-75
2023/05/19 02:30:01;;;;;;;10.82;4.25;;;17.50;93.60;;;;;;6245431;23;20028;-77
2023/05/19 02:32:26;;;;;;;9.05;3.72;;;17.50;93.70;;;;;;6245128;23;20040;-77
2023/05/19 02:34:55;;;;;;;7.45;3.72;;;17.50;93.70;;;;;;6245014;23;20059;-74
2023/05/19 02:37:22;;;;;;;8.48;4.22;;;17.50;93.70;;;;;;6244241;23;20430;-75
2023/05/19 02:39:48;;;;;;;10.13;3.58;;;17.50;93.70;;;;;;6245369;23;19996;-76
2023/05/19 02:42:16;;;;;;;7.45;3.40;;;17.50;93.70;;;;;;6245058;23;20001;-76
2023/05/19 02:44:42;;;;;;;9.82;3.97;;;17.50;93.80;;;;;;6244745;23;20008;-76
2023/05/19 02:47:08;;;;;;;10.15;4.05;;;17.50;93.80;;;;;;6244927;23;20414;-76
2023/05/19 02:49:34;;;;;;;10.45;3.60;;;17.40;93.70;;;;;;6245349;23;20046;-76
2023/05/19 02:52:02;;;;;;;7.32;3.45;;;17.40;93.60;;;;;;6245323;23;20012;-75
2023/05/19 02:54:31;;;;;;;8.95;3.75;;;17.40;93.70;;;;;;6245240;23;20074;-74
2023/05/19 02:56:58;;;;;;;10.07;3.45;;;17.40;93.80;;;;;;6245128;23;20004;-75
2023/05/19 02:59:24;;;;;;;11.80;3.95;;;17.40;93.70;;;;;;6244868;23;20026;-75
2023/05/19 03:01:55;;;;;;;8.10;3.58;;;17.40;93.70;;;;;;6244967;23;20008;-75
2023/05/19 03:04:20;;;;;;;12.10;3.50;;;17.40;93.70;;;;;;6244463;23;20416;-76
2023/05/19 03:06:46;;;;;;;8.48;3.53;;;17.30;93.60;;;;;;6245138;23;20004;-74
2023/05/19 03:09:13;;;;;;;6.43;3.10;;;17.30;93.60;;;;;;6245177;23;20007;-75
2023/05/19 03:11:39;;;;;;;8.85;3.33;;;17.20;93.60;;;;;;6245039;23;20008;-75
2023/05/19 03:14:05;;;;;;;9.63;3.30;;;17.20;93.50;;;;;;6244697;23;20001;-76
2023/05/19 03:16:31;;;;;;;8.07;3.10;;;17.20;93.50;;;;;;6217524;23;20487;-74
2023/05/19 03:18:57;;;;;;;7.95;2.95;;;17.20;93.50;;;;;;6244581;23;19996;-74
2023/05/19 03:21:23;;;;;;;6.95;3.13;;;17.30;93.50;;;;;;6244629;23;20083;-74
2023/05/19 03:23:49;;;;;;;7.07;2.80;;;17.30;93.50;;;;;;6244452;23;20036;-75
2023/05/19 03:26:14;;;;;;;8.73;3.20;;;17.30;93.40;;;;;;6244671;23;20130;-75
2023/05/19 03:28:40;;;;;;;10.95;3.22;;;17.30;93.40;;;;;;6244207;23;20088;-75
2023/05/19 03:31:06;;;;;;;6.45;3.17;;;17.30;93.40;;;;;;6244300;23;20008;-75
2023/05/19 03:33:32;;;;;;;11.93;3.40;;;17.20;93.30;;;;;;6244315;23;20068;-75
2023/05/19 03:35:57;;;;;;;8.23;3.00;;;17.20;93.30;;;;;;6244245;23;20004;-75
2023/05/19 03:38:24;;;;;;;7.15;3.40;;;17.20;93.40;;;;;;6244288;23;20003;-74
2023/05/19 03:40:49;;;;;;;6.72;3.10;;;17.20;93.50;;;;;;6217461;23;20004;-74
2023/05/19 03:43:15;;;;;;;8.45;3.30;;;17.20;93.40;;;;;;6244125;23;20449;-75
2023/05/19 03:45:41;;;;;;;8.60;3.20;;;17.30;93.40;;;;;;6244304;23;20001;-75
2023/05/19 03:48:07;;;;;;;7.25;3.55;;;17.30;93.40;;;;;;6244062;23;20000;-75
2023/05/19 03:50:33;;;;;;;6.28;3.10;;;17.30;93.40;;;;;;6244112;23;20009;-74
2023/05/19 03:52:59;;;;;;;10.32;3.40;;;17.30;93.30;;;;;;6244425;23;20000;-75
2023/05/19 03:55:28;;;;;;;8.68;3.25;;;17.30;93.40;;;;;;6243889;23;20004;-74
2023/05/19 03:57:54;;;;;;;6.13;3.38;;;17.30;93.40;;;;;;6244183;23;20004;-76
2023/05/19 04:00:20;;;;;;;7.32;3.00;;;17.30;93.40;;;;;;6244380;23;20004;-74
2023/05/19 04:02:46;;;;;;;8.40;2.80;;;17.30;93.70;;;;;;6217318;23;20031;-76
2023/05/19 04:05:12;;;;;;;11.82;3.65;;;17.30;93.40;;;;;;6219644;23;20066;-75
2023/05/19 04:07:38;;;;;;;8.70;3.25;;;17.20;93.40;;;;;;6245065;23;20001;-76
2023/05/19 04:10:04;;;;;;;6.70;3.20;;;17.20;93.50;;;;;;6249828;23;20027;-75
2023/05/19 04:12:30;;;;;;;7.50;3.08;;;17.20;93.40;;;;;;6268213;23;20019;-75
2023/05/19 04:14:56;;;;;;;9.02;2.95;;;17.20;93.50;;;;;;6251641;23;20374;-74
2023/05/19 04:17:25;;;;;;;7.85;3.10;;;17.30;93.50;;;;;;6244849;23;20075;-74
2023/05/19 04:19:51;;;;;;;6.63;3.30;;;17.30;93.50;;;;;;6245185;23;20414;-76
2023/05/19 04:22:17;;;;;;;7.05;3.45;;;17.30;93.40;;;;;;6244119;23;20130;-76
2023/05/19 04:24:42;;;;;;;9.70;3.50;;;17.30;93.50;;;;;;6244119;23;20028;-75
2023/05/19 04:27:10;;;;;;;7.15;2.90;;;17.20;93.50;;;;;;6244601;23;20011;-75
2023/05/19 04:29:37;;;;;;;6.63;3.40;;;17.20;93.50;;;;;;6243754;23;20099;-75
2023/05/19 04:32:06;;;;;;;7.10;3.72;;;17.30;93.60;;;;;;6243478;23;20095;-76
2023/05/19 04:34:38;;;;;;;6.72;3.63;;;17.30;93.60;;;;;;6243711;23;20445;-75
2023/05/19 04:37:08;;;;;;;7.75;3.60;;;17.20;93.70;;;;;;6243840;23;20350;-75
2023/05/19 04:39:37;;;;;;;6.40;3.83;;;17.20;93.50;;;;;;6243685;23;20334;-75
2023/05/19 04:42:03;;;;;;;7.63;4.00;;;17.20;93.70;;;;;;6243465;23;20035;-76
2023/05/19 04:44:30;;;;;;;8.13;4.13;;;17.20;93.90;;;;;;6244207;23;20070;-77
2023/05/19 04:46:57;;;;;;;10.45;4.10;;;17.10;93.90;;;;;;6244301;23;20157;-76
2023/05/19 04:49:27;;;;;;;8.20;4.00;;;17.20;93.90;;;;;;6243461;23;20086;-76
2023/05/19 04:51:53;;;;;;;8.25;3.72;;;17.20;93.90;;;;;;6216736;23;20287;-75
2023/05/19 04:54:18;;;;;;;8.98;4.40;;;17.20;93.90;;;;;;6243732;23;20004;-76
2023/05/19 04:56:44;;;;;;;15.00;4.72;;;17.20;93.90;;;;;;6244335;23;19996;-76
2023/05/19 04:59:10;;;;;;;8.00;4.90;;;17.20;93.90;;;;;;6244218;23;20019;-76
2023/05/19 05:01:39;;;;;;;10.60;5.40;;;17.30;93.90;;;;;;6246268;23;20063;-76
2023/05/19 05:04:05;;;;;;;8.68;5.07;;;17.20;93.90;;;;;;6245478;23;20027;-77
2023/05/19 05:06:31;;;;;;;10.50;5.28;;;17.30;93.90;;;;;;6246270;23;20074;-76
2023/05/19 05:08:56;;;;;;;9.32;5.00;;;17.30;94.00;;;;;;6245748;23;20441;-76
2023/05/19 05:11:22;;;;;;;14.57;5.30;;;17.20;94.00;;;;;;6245663;23;20012;-76
2023/05/19 05:13:48;;;;;;;12.27;5.57;;;17.20;94.10;;;;;;6245870;23;20026;-75
2023/05/19 05:16:14;;;;;;;10.45;5.85;;;17.20;94.20;;;;;;6246145;23;20004;-75
2023/05/19 05:18:40;;;;;;;10.15;5.28;;;17.20;94.10;;;;;;6245874;23;19996;-76
2023/05/19 05:21:07;;;;;;;8.20;5.07;;;17.20;94.30;;;;;;6245734;23;20011;-75
2023/05/19 05:23:33;;;;;;;7.82;5.60;;;17.10;94.20;;;;;;6245801;23;20083;-75
2023/05/19 05:26:00;;;;;;;8.70;5.30;;;17.20;94.30;;;;;;6245637;23;20001;-75
2023/05/19 05:28:25;;;;;;;9.27;5.22;;;17.20;94.30;;;;;;6245572;23;20303;-75
2023/05/19 05:30:51;;;;;;;9.80;4.93;;;17.20;94.30;;;;;;6245536;23;20012;-75
2023/05/19 05:33:18;;;;;;;8.32;5.10;;;17.30;94.30;;;;;;6245115;23;20427;-75
2023/05/19 05:35:44;;;;;;;8.68;5.50;;;17.30;94.30;;;;;;6245072;23;20000;-76
2023/05/19 05:38:10;;;;;;;10.70;5.00;;;17.30;94.20;;;;;;6246014;23;20007;-76
2023/05/19 05:40:36;;;;;;;9.90;4.78;;;17.30;94.20;;;;;;6245918;23;20016;-74
2023/05/19 05:43:01;;;;;;;16.70;5.25;;;17.40;94.10;;;;;;6245299;23;20415;-74
2023/05/19 05:45:27;;;;;;;9.15;5.65;;;17.40;94.10;;;;;;6245091;23;20010;-71
2023/05/19 05:47:53;;;;;;;13.80;5.18;;;17.40;94.10;;;;;;6245790;23;20031;-71
2023/05/19 05:50:19;;;;;;;17.55;5.32;;;17.40;94.00;;;;;;6244892;23;20000;-72
2023/05/19 05:52:46;;;;;;;8.52;4.95;;;17.50;94.10;;;;;;6218118;23;20008;-71
2023/05/19 05:55:12;;;;;;;15.95;5.90;;;17.50;93.90;;;;;;6245211;23;20071;-71
2023/05/19 05:57:40;;;;;;;11.25;5.63;;;17.60;93.90;;;;;;6244990;23;20077;-70
2023/05/19 06:00:14;;;;;;;16.58;4.90;;;17.70;93.90;;;;;;6245202;23;20004;-71
2023/05/19 06:02:52;;;;;;;;;;;17.80;93.80;;;;;;6245397;23;20012;-71
2023/05/19 06:05:17;;;;;;;9.70;4.65;;;17.90;93.70;;;;;;6244868;23;20241;-72
2023/05/19 06:07:43;;;;;;;10.15;4.78;;;18.00;93.40;;;;;;6245043;23;20004;-71
2023/05/19 06:10:09;;;;;;;10.07;4.90;;;18.10;93.50;;;;;;6245007;23;20000;-74
2023/05/19 06:12:39;;;;;;;11.55;4.85;;;18.20;93.10;;;;;;6245228;23;20026;-73
2023/05/19 06:15:06;;;;;;;16.70;5.78;;;18.40;92.90;;;;;;6218026;23;20013;-75
2023/05/19 06:17:34;;;;;;;19.65;5.53;;;18.60;92.70;;;;;;6217646;23;20083;-75
2023/05/19 06:20:00;;;;;;;17.65;5.43;;;18.70;92.30;;;;;;6244604;23;20001;-74
2023/05/19 06:22:27;;;;;;;22.83;5.82;;;18.80;92.10;;;;;;6244936;23;20023;-75
2023/05/19 06:24:52;;;;;;;23.50;4.60;;;18.80;92.00;;;;;;6244821;23;20000;-73
2023/05/19 06:27:18;;;;;;;12.82;5.05;;;18.80;91.70;;;;;;6244429;23;20080;-74
2023/05/19 06:29:44;;;;;;;17.10;3.97;;;18.90;91.60;;;;;;6244637;23;20436;-74
2023/05/19 06:32:10;;;;;;;9.95;3.80;;;18.90;91.50;;;;;;6244292;23;20070;-74
2023/05/19 06:34:37;;;;;;;12.80;4.65;;;18.90;91.30;;;;;;6244016;23;20059;-74
2023/05/19 06:37:03;;;;;;;15.93;4.38;;;19.00;91.40;;;;;;6244266;23;20020;-73
2023/05/19 06:39:29;;;;;;;15.20;3.85;;;19.00;91.40;;;;;;6245116;23;20326;-74
2023/05/19 06:41:54;;;;;;;15.93;4.22;;;19.00;91.10;;;;;;6244729;23;20007;-74
2023/05/19 06:44:21;;;;;;;12.02;3.65;;;19.00;91.00;;;;;;6244773;23;20020;-73
2023/05/19 06:46:46;;;;;;;11.00;3.45;;;19.00;90.90;;;;;;6244883;23;20071;-74
2023/05/19 06:49:12;;;;;;;9.57;3.92;;;18.90;90.90;;;;;;6244763;23;20082;-73
2023/05/19 06:51:38;;;;;;;14.32;4.55;;;18.90;91.10;;;;;;6244894;23;20130;-75
2023/05/19 06:54:04;;;;;;;14.93;3.97;;;18.90;91.10;;;;;;6245141;23;20283;-73
2023/05/19 06:56:29;;;;;;;12.40;3.67;;;18.80;91.00;;;;;;6245074;23;20114;-73
2023/05/19 06:58:55;;;;;;;14.68;4.13;;;18.80;91.10;;;;;;6244654;23;20071;-73
2023/05/19 07:01:21;;;;;;;10.80;3.60;;;18.80;91.30;;;;;;6245032;23;20012;-73
2023/05/19 07:03:46;;;;;;;11.07;3.63;;;18.80;91.10;;;;;;6244414;23;20016;-73
2023/05/19 07:06:12;;;;;;;8.82;3.75;;;18.70;91.10;;;;;;6245276;23;20375;-73
2023/05/19 07:08:38;;;;;;;14.48;4.00;;;18.60;91.00;;;;;;6244822;23;20023;-74
2023/05/19 07:11:04;;;;;;;14.10;3.95;;;18.60;91.10;;;;;;6245888;23;20426;-74
2023/05/19 07:13:31;;;;;;;12.23;3.72;;;18.60;91.10;;;;;;6245385;23;20079;-74
2023/05/19 07:15:57;;;;;;;11.35;3.78;;;18.60;91.00;;;;;;6257473;23;20434;-73
2023/05/19 07:18:24;;;;;;;11.70;3.35;;;18.60;91.10;;;;;;6269604;22;20100;-72
2023/05/19 07:20:52;;;;;;;13.10;3.67;;;18.60;91.00;;;;;;6258408;23;20011;-73
2023/05/19 07:23:17;;;;;;;7.40;3.10;;;18.60;91.00;;;;;;6246945;23;20075;-73
2023/05/19 07:25:43;;;;;;;13.45;3.53;;;18.60;91.10;;;;;;6245079;23;20039;-73
2023/05/19 07:28:09;;;;;;;13.10;3.22;;;18.60;91.10;;;;;;6245491;23;20000;-74
2023/05/19 07:30:35;;;;;;;9.38;3.50;;;18.60;91.10;;;;;;6217267;23;20050;-73
2023/05/19 07:33:00;;;;;;;6.78;3.03;;;18.60;91.00;;;;;;6244613;23;20004;-75
2023/05/19 07:35:26;;;;;;;9.10;3.20;;;18.60;91.10;;;;;;6244369;23;20099;-73
2023/05/19 07:37:52;;;;;;;12.55;3.55;;;18.60;91.10;;;;;;6244775;23;20008;-75
2023/05/19 07:40:17;;;;;;;10.63;3.30;;;18.60;91.10;;;;;;6244488;23;20007;-73
2023/05/19 07:42:43;;;;;;;10.88;3.22;;;18.60;91.10;;;;;;6245090;23;20023;-75
2023/05/19 07:45:10;;;;;;;9.32;4.13;;;18.50;91.00;;;;;;6245051;23;20000;-75
2023/05/19 07:47:36;;;;;;;18.20;4.05;;;18.60;91.10;;;;;;6245063;23;20023;-74
2023/05/19 07:50:02;;;;;;;12.80;4.45;;;18.50;91.10;;;;;;6244962;23;20001;-74
2023/05/19 07:52:28;;;;;;;8.80;3.33;;;18.50;91.10;;;;;;6245339;23;20012;-74
2023/05/19 07:54:54;;;;;;;15.05;3.75;;;18.50;91.20;;;;;;6245241;23;20129;-74
2023/05/19 07:57:19;;;;;;;9.93;3.40;;;18.60;91.20;;;;;;6245090;23;20050;-75
2023/05/19 07:59:45;;;;;;;9.18;3.10;;;18.60;91.10;;;;;;6244950;23;20382;-74
2023/05/19 08:02:10;;;;;;;10.88;3.92;;;18.60;91.10;;;;;;6244115;23;20067;-75
2023/05/19 08:04:36;;;;;;;12.70;3.40;;;18.60;91.20;;;;;;6244849;23;20023;-75
2023/05/19 08:07:02;;;;;;;6.55;3.08;;;18.60;91.10;;;;;;6218085;23;20138;-74
2023/05/19 08:09:28;;;;;;;11.57;3.58;;;18.60;91.10;;;;;;6245129;23;20004;-74
2023/05/19 08:11:54;;;;;;;12.20;3.90;;;18.70;91.20;;;;;;6244613;23;20308;-74
2023/05/19 08:14:21;;;;;;;9.90;3.60;;;18.70;91.20;;;;;;6217984;23;20007;-75
2023/05/19 08:16:48;;;;;;;8.95;3.60;;;18.70;91.30;;;;;;6243945;23;20054;-74
2023/05/19 08:19:14;;;;;;;9.38;3.92;;;18.70;91.20;;;;;;6244649;23;20075;-73
2023/05/19 08:21:41;;;;;;;7.78;3.75;;;18.80;91.30;;;;;;6244092;23;20035;-74
2023/05/19 08:24:07;;;;;;;10.95;4.03;;;18.70;91.20;;;;;;6244550;23;20001;-74
2023/05/19 08:26:33;;;;;;;15.77;3.80;;;18.80;91.30;;;;;;6244337;23;20441;-74
2023/05/19 08:28:59;;;;;;;14.60;4.43;;;18.80;91.30;;;;;;6244122;23;20496;-75
2023/05/19 08:31:25;;;;;;;8.48;4.10;;;18.80;91.30;;;;;;6244250;23;20008;-74
2023/05/19 08:33:51;;;;;;;15.80;4.50;;;18.80;91.40;;;;;;6244931;23;20050;-75
2023/05/19 08:36:17;;;;;;;8.57;4.50;;;18.80;91.40;;;;;;6219532;23;20018;-74
2023/05/19 08:38:43;;;;;;;8.93;4.15;;;18.90;91.50;;;;;;6245920;23;20342;-75
2023/05/19 08:41:09;;;;;;;11.43;4.47;;;18.80;91.50;;;;;;6246146;23;20000;-75
2023/05/19 08:43:34;;;;;;;13.80;4.80;;;18.80;91.70;;;;;;6245852;23;20285;-74
2023/05/19 08:46:02;;;;;;;9.80;4.40;;;18.80;91.70;;;;;;6246216;23;20167;-74
2023/05/19 08:48:30;;;;;;;11.75;4.55;;;18.80;91.80;;;;;;6219292;23;20008;-74
2023/05/19 08:51:17;;;;;;;11.65;4.47;;;18.90;91.90;;;;;;6245565;23;20016;-74
2023/05/19 08:53:56;;;;;;;14.63;5.25;;;18.90;92.00;;;;;;6245897;23;20009;-75
2023/05/19 08:56:23;;;;;;;12.55;5.03;;;18.90;91.90;;;;;;6245714;23;20449;-74
2023/05/19 08:58:50;;;;;;;10.98;4.70;;;19.00;92.10;;;;;;6245768;23;20031;-74
2023/05/19 09:01:18;;;;;;;11.02;4.95;;;19.00;92.00;;;;;;6245631;23;20000;-74
2023/05/19 09:03:45;;;;;;;15.32;4.97;;;19.00;92.10;;;;;;6245231;23;20031;-73
2023/05/19 09:06:13;;;;;;;15.52;4.95;;;19.10;92.00;;;;;;6245690;23;20438;-73
2023/05/19 09:08:41;;;;;;;12.20;4.85;;;19.10;92.10;;;;;;6218139;23;20008;-74
2023/05/19 09:11:09;;;;;;;13.52;5.40;;;19.20;92.00;;;;;;6245451;23;20071;-74
2023/05/19 09:13:35;;;;;;;16.27;4.88;;;19.20;92.20;;;;;;6245101;23;20004;-73
2023/05/19 09:16:02;;;;;;;11.18;4.97;;;19.30;92.00;;;;;;6245378;23;20397;-73
2023/05/19 09:18:28;;;;;;;9.65;4.13;;;19.40;91.90;;;;;;6245360;23;20052;-74
2023/05/19 09:20:59;;;;;;;12.48;5.10;;;19.50;92.00;;;;;;6245718;23;20095;-74
2023/05/19 09:23:30;;;;;;;11.05;4.90;;;19.60;91.90;;;;;;6245094;23;20004;-74
2023/05/19 09:25:56;;;;;;;11.70;5.00;;;19.60;91.80;;;;;;6245304;23;20422;-74
2023/05/19 09:28:30;;;;;;;10.35;4.60;;;19.60;91.80;;;;;;6245439;23;20326;-73
2023/05/19 09:31:10;;;;;;;9.43;5.13;;;19.70;91.80;;;;;;6245076;23;20375;-74
2023/05/19 09:33:37;;;;;;;10.02;4.85;;;19.80;91.70;;;;;;6245974;23;20008;-74
2023/05/19 09:36:05;;;;;;;7.47;4.32;;;19.80;91.60;;;;;;6244896;23;20027;-74
2023/05/19 09:38:31;;;;;;;9.30;4.40;;;20.00;91.60;;;;;;6218801;23;20039;-75
2023/05/19 09:40:58;;;;;;;16.55;4.80;;;20.10;91.40;;;;;;6245192;23;20011;-75
2023/05/19 09:43:28;;;;;;;13.55;5.45;;;20.20;91.30;;;;;;6245168;23;20401;-73
2023/05/19 09:46:06;;;;;;;8.20;4.50;;;20.30;91.50;;;;;;6245140;23;20008;-74
2023/05/19 09:48:35;;;;;;;11.10;4.57;;;20.40;91.00;;;;;;6245268;23;20082;-75
2023/05/19 09:51:06;;;;;;;9.85;4.78;;;20.50;91.50;;;;;;6244604;23;20346;-75
2023/05/19 09:53:33;;;;;;;10.95;4.78;;;20.60;91.20;;;;;;6244807;23;19996;-75
2023/05/19 09:56:01;;;;;;;9.88;4.78;;;20.70;90.80;;;;;;6244929;23;20004;-74
2023/05/19 09:58:36;;;;;;;10.95;4.53;;;20.80;90.70;;;;;;6245342;23;20087;-75
2023/05/19 10:01:03;;;;;;;12.20;4.00;;;20.80;90.70;;;;;;6244916;23;20117;-75
2023/05/19 10:03:31;;;;;;;8.35;4.45;;;20.70;90.60;;;;;;6244870;23;20016;-74
2023/05/19 10:05:59;;;;;;;13.00;5.10;;;20.50;90.50;;;;;;6245390;23;20083;-75
2023/05/19 10:08:28;;;;;;;9.70;5.13;;;20.60;90.70;;;;;;6218449;23;20004;-75
2023/05/19 10:10:55;;;;;;;7.97;4.00;;;20.50;90.70;;;;;;6245218;23;20458;-75
2023/05/19 10:13:22;;;;;;;7.88;4.40;;;20.40;90.70;;;;;;6244415;23;20008;-74
2023/05/19 10:15:49;;;;;;;10.70;4.30;;;20.40;90.90;;;;;;6245158;23;20021;-74
2023/05/19 10:18:17;;;;;;;10.45;5.00;;;20.30;91.00;;;;;;6245149;23;19996;-74
2023/05/19 10:20:43;;;;;;;7.85;4.22;;;20.30;91.10;;;;;;6244956;23;20000;-74
2023/05/19 10:23:09;;;;;;;9.60;4.28;;;20.20;91.20;;;;;;6244741;23;20433;-74
2023/05/19 10:25:36;;;;;;;8.25;3.95;;;20.20;91.30;;;;;;6244987;23;20047;-75
2023/05/19 10:28:08;;;;;;;7.15;3.80;;;20.20;91.20;;;;;;6245133;23;20011;-74
2023/05/19 10:30:38;;;;;;;9.07;3.90;;;20.10;91.40;;;;;;6217747;23;20378;-74
2023/05/19 10:33:08;;;;;;;9.52;3.33;;;20.00;91.20;;;;;;6244442;23;20004;-74
2023/05/19 10:35:58;;;;;;;8.73;3.30;;;20.10;91.10;;;;;;6244570;23;20067;-75
2023/05/19 10:38:45;;;;;;;9.27;3.55;;;20.20;90.90;;;;;;6244379;23;20083;-74
2023/05/19 10:41:29;;;;;;;6.20;3.25;;;20.30;90.70;;;;;;6245063;23;20064;-74
2023/05/19 10:44:08;;;;;;;8.73;3.38;;;20.40;90.60;;;;;;6217527;23;20014;-75
2023/05/19 10:46:35;;;;;;;8.38;3.28;;;20.50;90.40;;;;;;6244594;23;20004;-73
2023/05/19 10:49:01;;;;;;;9.07;3.53;;;20.60;90.10;;;;;;6244635;23;20454;-75
2023/05/19 10:51:30;;;;;;;9.13;3.10;;;20.60;90.00;;;;;;6244707;23;20008;-74
2023/05/19 10:53:57;;;;;;;5.90;3.05;;;20.70;89.80;;;;;;6244100;23;20004;-74
2023/05/19 10:56:32;;;;;;;7.70;3.00;;;20.70;89.80;;;;;;6244214;23;20015;-75
2023/05/19 10:58:58;;;;;;;7.47;3.22;;;20.90;89.90;;;;;;6243993;23;20075;-75
2023/05/19 11:01:35;;;;;;;5.03;3.20;;;21.10;89.40;;;;;;6244166;23;20012;-75
2023/05/19 11:04:12;;;;;;;7.80;3.15;;;21.20;89.20;;;;;;6243832;23;20023;-74
2023/05/19 11:06:39;;;;;;;4.72;2.65;;;21.40;88.80;;;;;;6243856;23;20000;-73
2023/05/19 11:09:09;;;;;;;5.65;3.20;;;21.40;87.80;;;;;;6243865;23;20000;-75
2023/05/19 11:11:51;;;;;;;8.52;3.05;;;21.50;88.00;;;;;;6216976;23;20016;-73
2023/05/19 11:14:22;;;;;;;7.57;3.38;;;21.40;87.50;;;;;;6244066;23;19996;-74
2023/05/19 11:16:49;;;;;;;7.05;3.22;;;21.40;86.30;;;;;;6243709;23;20340;-74
2023/05/19 11:19:28;;;;;;;8.02;2.70;;;21.40;86.30;;;;;;6244079;23;20003;-74
2023/05/19 11:21:54;;;;;;;6.35;3.25;;;21.40;86.70;;;;;;6244721;23;20032;-74
2023/05/19 11:24:32;;;;;;;8.63;2.80;;;21.50;85.90;;;;;;6244528;23;20447;-74
2023/05/19 11:26:58;;;;;;;9.52;3.45;;;21.60;86.40;;;;;;6244733;23;20027;-74
2023/05/19 11:29:23;;;;;;;8.25;3.17;;;21.70;86.20;;;;;;6244290;23;20442;-75
2023/05/19 11:31:51;;;;;;;7.93;2.78;;;21.80;86.10;;;;;;6244042;23;20013;-74
2023/05/19 11:34:17;;;;;;;7.57;2.45;;;21.80;85.90;;;;;;6244064;23;20382;-74
2023/05/19 11:36:44;;;;;;;9.32;2.35;;;21.90;85.20;;;;;;6244029;23;20010;-74
2023/05/19 11:39:10;;;;;;;6.78;2.25;;;22.00;84.30;;;;;;6244203;23;20003;-75
2023/05/19 11:41:39;;;;;;;7.22;2.58;;;22.10;83.90;;;;;;6243902;23;20347;-75
2023/05/19 11:44:10;;;;;;;8.15;2.67;;;22.20;83.00;;;;;;6244354;23;20161;-74
2023/05/19 11:46:36;;;;;;;8.50;2.50;;;22.30;82.20;;;;;;6244492;23;20004;-75
2023/05/19 11:49:04;;;;;;;8.13;2.28;;;22.30;82.00;;;;;;6243870;23;20330;-74
2023/05/19 11:51:31;;;;;;;7.47;2.25;;;22.30;81.10;;;;;;6243939;23;20023;-75
2023/05/19 11:53:57;;;;;;;6.22;2.20;;;22.30;80.70;;;;;;6244015;23;20463;-73
2023/05/19 11:56:22;;;;;;;5.78;2.20;;;22.40;79.00;;;;;;6243869;23;20075;-74
2023/05/19 11:58:48;;;;;;;5.75;2.08;;;22.40;78.80;;;;;;6243915;23;20006;-74
2023/05/19 12:01:14;;;;;;;6.05;1.90;;;22.50;78.20;;;;;;6243932;23;20004;-74
2023/05/19 12:03:39;;;;;;;3.72;1.83;;;22.60;77.90;;;;;;6244071;23;20040;-72
2023/05/19 12:06:07;;;;;;;3.85;1.52;;;22.60;77.30;;;;;;6243896;23;20035;-74
2023/05/19 12:08:33;;;;;;;5.20;1.70;;;22.60;76.40;;;;;;6243678;23;20000;-73
2023/05/19 12:10:59;;;;;;;4.20;1.80;;;22.60;75.90;;;;;;6246363;23;20340;-74
2023/05/19 12:13:26;;;;;;;6.07;1.73;;;22.50;75.70;;;;;;6246472;23;20053;-74
2023/05/19 12:15:52;;;;;;;10.93;2.65;;;22.30;75.30;;;;;;6218783;23;20008;-73
2023/05/19 12:18:18;;;;;;;9.73;2.55;;;22.30;76.00;;;;;;6246124;23;20047;-75
2023/05/19 12:20:44;;;;;;;5.30;2.45;;;22.30;76.00;;;;;;6245905;23;20011;-74
2023/05/19 12:23:11;;;;;;;6.72;2.20;;;22.30;76.20;;;;;;6246040;23;20054;-73
2023/05/19 12:25:37;;;;;;;5.75;2.08;;;22.30;76.60;;;;;;6246287;23;20143;-75
2023/05/19 12:28:03;;;;;;;5.45;2.25;;;22.40;76.50;;;;;;6245970;23;20027;-73
2023/05/19 12:30:30;;;;;;;7.45;1.95;;;22.40;76.80;;;;;;6246149;23;20007;-75
2023/05/19 12:32:59;;;;;;;7.97;2.10;;;22.50;76.40;;;;;;6246211;23;20020;-74
2023/05/19 12:35:26;;;;;;;6.78;2.00;;;22.50;76.50;;;;;;6246187;23;20000;-75
2023/05/19 12:37:53;;;;;;;4.18;2.00;;;22.70;76.20;;;;;;6245940;23;19996;-74
2023/05/19 12:40:19;;;;;;;8.90;2.13;;;22.70;76.10;;;;;;6245915;23;20471;-75
2023/05/19 12:42:45;;;;;;;6.03;1.95;;;22.80;76.10;;;;;;6245856;23;20027;-75
2023/05/19 12:45:11;;;;;;;7.05;2.20;;;22.80;75.70;;;;;;6245849;23;20004;-74
2023/05/19 12:47:36;;;;;;;10.43;6.60;;;23.00;75.80;;;;;;6218537;23;20008;-75